Time;durP1;ratioP1;P1;durP2;ratioP2;P2;SDS_P1;SDS_P2;PMS_P1;PMS_P2;Temp;Humidity;BMP_temperature;BMP_pressure;BME280_temperature;BME280_humidity;BME280_pressure;Samples;Min_cycle;Max_cycle;Signal;HPM_P1;HPM_P2
2023/04/18 00:00:33;;;;;;;15.15;7.72;;;5.60;97.70;;;;;;5032554;28;20041;-45
2023/04/18 00:02:59;;;;;;;14.95;7.57;;;;;;;;;;5015918;28;20369;-45
2023/04/18 00:05:25;;;;;;;9.50;7.20;;;5.20;98.30;;;;;;5031557;28;20060;-46
2023/04/18 00:07:52;;;;;;;11.20;7.68;;;;;;;;;;5026453;28;20064;-45
2023/04/18 00:10:18;;;;;;;12.63;8.07;;;;;;;;;;5012195;28;20053;-45
2023/04/18 00:12:44;;;;;;;10.50;7.28;;;5.30;97.80;;;;;;5032486;28;20049;-47
2023/04/18 00:15:11;;;;;;;11.57;8.32;;;6.30;98.00;;;;;;5024822;28;20053;-45
2023/04/18 00:17:39;;;;;;;10.85;8.20;;;5.10;99.90;;;;;;5037267;28;20128;-46
2023/04/18 00:20:09;;;;;;;12.60;8.57;;;5.30;97.30;;;;;;5034983;28;20033;-45
2023/04/18 00:22:35;;;;;;;11.38;8.30;;;;;;;;;;5030575;28;20037;-45
2023/04/18 00:25:01;;;;;;;10.80;8.40;;;5.00;98.30;;;;;;5036365;28;20041;-46
2023/04/18 00:27:27;;;;;;;11.15;8.25;;;5.30;98.60;;;;;;5039415;28;20033;-45
2023/04/18 00:29:52;;;;;;;12.98;8.25;;;5.00;98.60;;;;;;5037370;28;20072;-46
2023/04/18 00:32:18;;;;;;;13.40;9.00;;;4.90;99.90;;;;;;5031362;28;20096;-45
2023/04/18 00:34:44;;;;;;;14.85;9.52;;;6.20;99.90;;;;;;5036958;28;20033;-46
2023/04/18 00:37:10;;;;;;;15.10;8.77;;;5.00;99.00;;;;;;5036534;28;20115;-46
2023/04/18 00:39:36;;;;;;;12.48;8.25;;;5.10;99.20;;;;;;5036129;28;20467;-47
2023/04/18 00:42:02;;;;;;;13.90;7.78;;;5.10;99.40;;;;;;5035604;28;20757;-44
2023/04/18 00:44:29;;;;;;;12.82;8.25;;;;;;;;;;5039496;28;20443;-44
2023/04/18 00:46:54;;;;;;;13.82;8.05;;;4.70;99.80;;;;;;5033621;28;20040;-45
2023/04/18 00:49:21;;;;;;;12.40;8.18;;;4.80;99.50;;;;;;5035728;28;20056;-45
2023/04/18 00:51:48;;;;;;;11.10;7.95;;;4.80;99.90;;;;;;5039293;28;20049;-46
2023/04/18 00:54:16;;;;;;;12.50;8.15;;;4.80;99.90;;;;;;5036575;28;20584;-46
2023/04/18 00:56:43;;;;;;;11.45;7.85;;;4.60;99.90;;;;;;5030821;28;20128;-46
2023/04/18 00:59:09;;;;;;;13.07;8.15;;;4.70;99.90;;;;;;5035424;28;20049;-49
2023/04/18 01:01:36;;;;;;;14.95;7.93;;;4.40;99.90;;;;;;5036147;28;20044;-45
2023/04/18 01:04:02;;;;;;;12.30;8.93;;;4.50;99.90;;;;;;5040092;28;20064;-44
2023/04/18 01:06:28;;;;;;;14.02;8.68;;;4.50;99.90;;;;;;5027463;28;20211;-46
2023/04/18 01:08:55;;;;;;;14.93;8.85;;;4.70;99.90;;;;;;5039158;28;20052;-46
2023/04/18 01:11:21;;;;;;;13.77;9.48;;;4.60;99.90;;;;;;5032943;28;20073;-46
2023/04/18 01:14:04;;;;;;;16.77;8.88;;;4.70;99.90;;;;;;5034133;28;20060;-47
2023/04/18 01:16:33;;;;;;;13.27;9.20;;;4.40;99.90;;;;;;5033678;28;20041;-46
2023/04/18 01:19:03;;;;;;;13.68;8.57;;;4.40;99.90;;;;;;5037411;28;20565;-46
2023/04/18 01:21:32;;;;;;;11.50;8.48;;;6.10;99.90;;;;;;5034855;28;20622;-46
2023/04/18 01:24:14;;;;;;;14.65;8.98;;;4.60;99.90;;;;;;5029569;28;20041;-46
2023/04/18 01:26:42;;;;;;;13.55;8.57;;;4.60;99.90;;;;;;5028705;28;20671;-45
2023/04/18 01:29:08;;;;;;;13.05;8.43;;;4.80;99.90;;;;;;5022233;28;20043;-48
2023/04/18 01:31:35;;;;;;;12.20;8.80;;;4.60;99.90;;;;;;5033441;28;20037;-46
2023/04/18 01:34:02;;;;;;;13.25;9.02;;;4.60;99.90;;;;;;5032129;28;20041;-46
2023/04/18 01:36:27;;;;;;;12.70;8.50;;;4.60;99.90;;;;;;5014465;28;20096;-48
2023/04/18 01:38:53;;;;;;;16.95;9.18;;;5.00;99.90;;;;;;5022892;28;20045;-47
2023/04/18 01:41:19;;;;;;;13.50;9.45;;;5.00;99.90;;;;;;5037522;28;20072;-48
2023/04/18 01:43:45;;;;;;;12.55;8.77;;;5.20;99.90;;;;;;5029848;28;20041;-45
2023/04/18 01:46:11;;;;;;;14.25;8.95;;;;;;;;;;5032853;28;20519;-46
2023/04/18 01:48:36;;;;;;;14.45;9.80;;;5.90;99.90;;;;;;5035203;28;20852;-49
2023/04/18 01:51:02;;;;;;;14.20;9.40;;;5.20;99.90;;;;;;5033792;28;20045;-46
2023/04/18 01:53:28;;;;;;;13.88;10.20;;;4.70;99.90;;;;;;5027191;28;20037;-45
2023/04/18 01:55:54;;;;;;;15.30;10.32;;;;;;;;;;5033384;28;20112;-46
2023/04/18 01:58:22;;;;;;;14.80;9.60;;;4.70;99.90;;;;;;5033264;28;20881;-47
2023/04/18 02:00:52;;;;;;;12.40;9.10;;;4.70;99.90;;;;;;5032679;28;20052;-44
2023/04/18 02:03:18;;;;;;;14.20;9.57;;;4.80;99.90;;;;;;5039151;28;20048;-47
2023/04/18 02:05:44;;;;;;;16.23;10.40;;;6.10;99.90;;;;;;5032113;28;20041;-45
2023/04/18 02:08:10;;;;;;;14.95;10.63;;;5.90;99.90;;;;;;5019583;28;20057;-46
2023/04/18 02:10:36;;;;;;;14.77;10.32;;;4.50;99.90;;;;;;5036295;28;20102;-46
2023/04/18 02:13:02;;;;;;;16.02;10.10;;;5.10;99.90;;;;;;5029995;28;20793;-46
2023/04/18 02:15:28;;;;;;;13.75;9.93;;;5.30;99.90;;;;;;5031709;28;20045;-46
2023/04/18 02:17:54;;;;;;;13.63;9.75;;;;;;;;;;5035040;28;20045;-45
2023/04/18 02:20:20;;;;;;;14.70;10.48;;;5.00;99.90;;;;;;5034343;28;20044;-49
2023/04/18 02:22:46;;;;;;;15.25;10.25;;;5.00;99.90;;;;;;5027137;28;20029;-47
2023/04/18 02:25:12;;;;;;;14.35;10.27;;;5.30;99.90;;;;;;5032855;28;20045;-46
2023/04/18 02:27:38;;;;;;;12.90;9.32;;;;;;;;;;5038726;28;20055;-46
2023/04/18 02:30:05;;;;;;;13.48;9.73;;;5.00;99.90;;;;;;5038400;28;20661;-46
2023/04/18 02:32:31;;;;;;;13.90;9.93;;;;;;;;;;5031617;28;20045;-46
2023/04/18 02:34:57;;;;;;;15.23;10.55;;;5.00;99.90;;;;;;5031899;28;20603;-46
2023/04/18 02:37:23;;;;;;;14.10;9.98;;;;;;;;;;5036362;28;20096;-45
2023/04/18 02:39:49;;;;;;;15.82;9.90;;;;;;;;;;5035780;28;20049;-45
2023/04/18 02:42:15;;;;;;;13.55;10.48;;;5.10;99.90;;;;;;5035215;28;20041;-47
2023/04/18 02:44:40;;;;;;;15.65;10.68;;;5.40;99.90;;;;;;5033743;28;20047;-47
2023/04/18 02:47:06;;;;;;;13.73;10.48;;;5.60;99.90;;;;;;5026915;28;20041;-47
2023/04/18 02:49:32;;;;;;;16.13;10.10;;;5.30;99.90;;;;;;5032551;28;20049;-45
2023/04/18 02:51:57;;;;;;;16.02;9.48;;;5.10;99.90;;;;;;5032809;28;20048;-45
2023/04/18 02:54:23;;;;;;;16.42;10.07;;;5.10;99.90;;;;;;5031614;28;20455;-46
2023/04/18 02:56:52;;;;;;;17.95;10.00;;;6.80;99.90;;;;;;5013791;28;20045;-44
2023/04/18 02:59:18;;;;;;;16.27;10.02;;;6.00;99.90;;;;;;5031686;28;20048;-45
2023/04/18 03:01:44;;;;;;;14.55;10.00;;;;;;;;;;5037837;28;20033;-45
2023/04/18 03:04:11;;;;;;;14.60;9.82;;;;;;;;;;5037640;28;20044;-45
2023/04/18 03:06:37;;;;;;;13.02;9.57;;;5.30;99.90;;;;;;5028795;28;20094;-45
2023/04/18 03:09:03;;;;;;;15.60;10.07;;;5.80;99.90;;;;;;5014388;28;20088;-45
2023/04/18 03:11:29;;;;;;;15.38;9.85;;;5.80;99.90;;;;;;5035184;28;20621;-46
2023/04/18 03:13:55;;;;;;;16.67;10.70;;;5.70;99.90;;;;;;5032474;28;20155;-47
2023/04/18 03:16:20;;;;;;;13.77;9.23;;;5.60;99.90;;;;;;5031730;28;20079;-47
2023/04/18 03:18:46;;;;;;;14.88;9.40;;;5.70;99.90;;;;;;5038174;28;20036;-46
2023/04/18 03:21:12;;;;;;;15.15;9.50;;;5.80;99.90;;;;;;5031708;28;20080;-45
2023/04/18 03:23:38;;;;;;;13.98;9.68;;;6.70;99.90;;;;;;5030962;28;20045;-46
2023/04/18 03:26:06;;;;;;;17.10;10.60;;;5.90;99.90;;;;;;5030778;28;20029;-47
2023/04/18 03:28:31;;;;;;;14.80;9.07;;;6.40;99.90;;;;;;5030890;28;20045;-46
2023/04/18 03:30:57;;;;;;;15.00;8.63;;;5.60;99.90;;;;;;5029626;28;20044;-46
2023/04/18 03:33:23;;;;;;;13.77;9.45;;;6.20;99.90;;;;;;5031312;28;20060;-45
2023/04/18 03:35:49;;;;;;;14.90;9.07;;;;;;;;;;5034092;28;20655;-48
2023/04/18 03:38:15;;;;;;;15.43;9.82;;;5.80;99.90;;;;;;5033655;28;20079;-46
2023/04/18 03:40:43;;;;;;;15.55;9.20;;;6.20;99.90;;;;;;5026910;28;20053;-45
2023/04/18 03:43:09;;;;;;;13.40;9.25;;;5.80;99.90;;;;;;5030928;28;20073;-47
2023/04/18 03:45:35;;;;;;;14.38;9.77;;;5.70;99.90;;;;;;5032371;28;20124;-46
2023/04/18 03:48:01;;;;;;;16.00;9.80;;;6.60;99.90;;;;;;5019831;28;20048;-48
2023/04/18 03:50:27;;;;;;;13.88;9.35;;;5.30;99.90;;;;;;5031115;28;20041;-46
2023/04/18 03:52:53;;;;;;;15.50;9.43;;;5.40;99.90;;;;;;5030901;28;20286;-45
2023/04/18 03:55:19;;;;;;;12.77;8.77;;;5.60;99.90;;;;;;5036277;28;20120;-46
2023/04/18 03:57:45;;;;;;;15.07;9.13;;;5.40;99.90;;;;;;5036457;28;20045;-45
2023/04/18 04:00:12;;;;;;;15.95;9.50;;;5.70;99.90;;;;;;5032858;28;20035;-48
2023/04/18 04:02:38;;;;;;;13.90;9.82;;;5.30;99.90;;;;;;5039642;28;20364;-46
2023/04/18 04:05:04;;;;;;;14.05;9.07;;;5.50;99.90;;;;;;5037404;28;20045;-46
2023/04/18 04:07:30;;;;;;;14.05;9.07;;;5.30;99.90;;;;;;5036503;28;20057;-45
2023/04/18 04:09:59;;;;;;;18.02;9.48;;;5.60;99.90;;;;;;5029447;28;20136;-45
2023/04/18 04:12:25;;;;;;;12.32;8.60;;;5.50;99.90;;;;;;5036554;28;20037;-44
2023/04/18 04:14:51;;;;;;;16.50;9.25;;;5.50;99.90;;;;;;5029106;28;20041;-46
2023/04/18 04:17:17;;;;;;;14.73;9.90;;;;;;;;;;5030285;28;20047;-47
2023/04/18 04:19:43;;;;;;;14.50;8.75;;;5.40;99.90;;;;;;5034696;28;20467;-47
2023/04/18 04:22:09;;;;;;;11.85;8.60;;;7.00;99.90;;;;;;5033399;28;20045;-45
2023/04/18 04:24:37;;;;;;;16.50;9.13;;;5.40;99.90;;;;;;5038512;28;20116;-45
2023/04/18 04:27:04;;;;;;;13.73;8.65;;;6.30;99.90;;;;;;5037319;28;20112;-46
2023/04/18 04:29:30;;;;;;;11.40;8.23;;;6.70;99.90;;;;;;5027421;28;20052;-46
2023/04/18 04:31:57;;;;;;;13.18;8.82;;;;;;;;;;5031911;28;20525;-46
2023/04/18 04:34:23;;;;;;;14.10;8.95;;;5.50;99.90;;;;;;5035105;28;20045;-46
2023/04/18 04:36:49;;;;;;;14.85;9.18;;;5.60;99.90;;;;;;5034528;28;20044;-46
2023/04/18 04:39:16;;;;;;;13.93;8.55;;;5.80;99.90;;;;;;5036144;28;20037;-47
2023/04/18 04:41:42;;;;;;;13.10;8.50;;;7.20;99.90;;;;;;5032954;28;20100;-45
2023/04/18 04:44:08;;;;;;;11.95;8.25;;;5.90;99.90;;;;;;5037926;28;20041;-45
2023/04/18 04:46:38;;;;;;;12.88;8.63;;;6.40;99.90;;;;;;5020183;28;20145;-47
2023/04/18 04:49:04;;;;;;;14.02;8.15;;;6.50;99.90;;;;;;5033905;28;20140;-45
2023/04/18 04:51:30;;;;;;;13.35;8.70;;;6.00;99.90;;;;;;5029527;28;20124;-46
2023/04/18 04:53:56;;;;;;;10.93;8.18;;;5.60;99.90;;;;;;5034561;28;20046;-48
2023/04/18 04:56:22;;;;;;;11.93;8.55;;;6.60;99.90;;;;;;5034159;28;20147;-48
2023/04/18 04:58:48;;;;;;;10.48;7.88;;;5.30;99.90;;;;;;5030921;28;20385;-47
2023/04/18 05:01:15;;;;;;;10.32;7.43;;;6.20;99.90;;;;;;5032891;28;20076;-48
2023/04/18 05:03:41;;;;;;;10.50;7.78;;;6.30;99.90;;;;;;5040256;28;20044;-46
2023/04/18 05:06:07;;;;;;;10.77;7.95;;;6.10;99.90;;;;;;5032186;28;20037;-46
2023/04/18 05:08:33;;;;;;;13.95;8.30;;;6.10;99.90;;;;;;5020614;28;20072;-44
2023/04/18 05:11:00;;;;;;;11.40;8.57;;;6.00;99.90;;;;;;5037616;28;21071;-46
2023/04/18 05:13:26;;;;;;;11.35;8.65;;;6.10;99.90;;;;;;5004140;28;20819;-49
2023/04/18 05:15:51;;;;;;;11.27;7.68;;;6.20;99.90;;;;;;5034081;28;20068;-46
2023/04/18 05:18:17;;;;;;;14.73;8.60;;;6.00;99.90;;;;;;5033338;28;20475;-47
2023/04/18 05:20:43;;;;;;;13.18;9.15;;;6.40;99.90;;;;;;5029595;28;20400;-45
2023/04/18 05:23:09;;;;;;;15.88;9.55;;;6.60;99.90;;;;;;5034633;28;20036;-44
2023/04/18 05:25:35;;;;;;;13.48;8.38;;;6.30;99.90;;;;;;5033843;28;20077;-46
2023/04/18 05:28:03;;;;;;;12.88;8.63;;;;;;;;;;5037021;28;20070;-46
2023/04/18 05:30:29;;;;;;;16.20;9.13;;;6.10;99.90;;;;;;5011641;28;20045;-45
2023/04/18 05:32:55;;;;;;;13.77;8.68;;;6.60;99.90;;;;;;5036478;28;20422;-46
2023/04/18 05:35:21;;;;;;;13.02;9.35;;;6.80;99.90;;;;;;5030806;28;20048;-45
2023/04/18 05:37:46;;;;;;;13.70;9.75;;;6.90;99.90;;;;;;5036090;28;20041;-45
2023/04/18 05:40:12;;;;;;;13.35;9.30;;;6.60;99.90;;;;;;5036872;28;20148;-45
2023/04/18 05:42:38;;;;;;;14.95;9.40;;;6.50;99.90;;;;;;5033831;28;20041;-49
2023/04/18 05:45:04;;;;;;;13.85;9.57;;;6.60;99.90;;;;;;5035172;28;20041;-45
2023/04/18 05:47:32;;;;;;;13.55;8.95;;;6.40;99.90;;;;;;5017364;28;20045;-46
2023/04/18 05:49:58;;;;;;;14.25;9.93;;;6.90;99.90;;;;;;5028181;28;20677;-45
2023/04/18 05:52:25;;;;;;;11.07;8.68;;;;;;;;;;5033451;28;20041;-46
2023/04/18 05:54:51;;;;;;;12.68;9.73;;;6.60;99.90;;;;;;5039334;28;20076;-46
2023/04/18 05:57:16;;;;;;;12.43;8.90;;;6.70;99.90;;;;;;5036119;28;20044;-45
2023/04/18 05:59:42;;;;;;;14.43;8.90;;;6.70;99.90;;;;;;5030995;28;20041;-45
2023/04/18 06:02:12;;;;;;;13.00;8.70;;;7.70;99.90;;;;;;5036682;28;20583;-45
2023/04/18 06:04:39;;;;;;;13.95;9.48;;;7.50;99.90;;;;;;5036306;28;20498;-45
2023/04/18 06:07:05;;;;;;;15.02;10.00;;;7.20;99.90;;;;;;5034211;28;20057;-46
2023/04/18 06:09:31;;;;;;;14.23;8.85;;;6.70;99.90;;;;;;5028021;28;20060;-45
2023/04/18 06:11:57;;;;;;;13.13;8.13;;;7.30;99.90;;;;;;5016317;28;20507;-45
2023/04/18 06:14:22;;;;;;;15.25;9.48;;;7.10;99.90;;;;;;5039423;28;20041;-45
2023/04/18 06:16:49;;;;;;;14.52;8.65;;;7.00;99.90;;;;;;5032087;28;20033;-45
2023/04/18 06:19:14;;;;;;;13.63;9.00;;;7.30;99.90;;;;;;5027464;28;20793;-45
2023/04/18 06:21:41;;;;;;;12.88;8.30;;;7.70;99.90;;;;;;5031766;28;20034;-46
2023/04/18 06:24:07;;;;;;;12.02;9.00;;;7.90;99.90;;;;;;5020737;28;21060;-45
2023/04/18 06:26:33;;;;;;;15.05;8.95;;;7.50;99.90;;;;;;5031815;28;20081;-45
2023/04/18 06:28:59;;;;;;;10.57;8.55;;;8.30;99.90;;;;;;5037256;28;20127;-45
2023/04/18 06:31:26;;;;;;;13.35;8.00;;;;;;;;;;5027024;28;20084;-45
2023/04/18 06:33:52;;;;;;;12.68;8.50;;;;;;;;;;5031270;28;20107;-46
2023/04/18 06:36:18;;;;;;;12.85;8.27;;;;;;;;;;5033122;28;20037;-47
2023/04/18 06:38:44;;;;;;;14.05;8.45;;;8.00;99.90;;;;;;5038532;28;20168;-45
2023/04/18 06:41:10;;;;;;;14.57;7.50;;;;;;;;;;5031223;28;20785;-46
2023/04/18 06:43:36;;;;;;;10.52;7.85;;;;;;;;;;5012943;28;20045;-46
2023/04/18 06:46:03;;;;;;;12.25;8.07;;;8.30;96.50;;;;;;5025328;28;20037;-45
2023/04/18 06:48:29;;;;;;;13.18;7.57;;;8.50;99.90;;;;;;5025043;28;20045;-46
2023/04/18 06:50:55;;;;;;;11.15;7.45;;;8.10;99.90;;;;;;5029338;28;20124;-45
2023/04/18 06:53:21;;;;;;;12.27;6.60;;;;;;;;;;5030220;28;20045;-45
2023/04/18 06:55:47;;;;;;;12.30;7.13;;;;;;;;;;5042902;28;20080;-47
2023/04/18 06:58:15;;;;;;;10.82;7.30;;;;;;;;;;5040258;28;20075;-46
2023/04/18 07:00:41;;;;;;;12.13;7.82;;;8.30;95.20;;;;;;5025866;28;20060;-45
2023/04/18 07:03:11;;;;;;;12.23;6.85;;;8.40;95.40;;;;;;5032946;28;20049;-46
2023/04/18 07:05:38;;;;;;;8.63;7.13;;;8.40;95.30;;;;;;5025391;28;20041;-46
2023/04/18 07:08:04;;;;;;;13.90;7.85;;;;;;;;;;5032018;28;20049;-46
2023/04/18 07:10:30;;;;;;;13.32;7.63;;;8.30;99.90;;;;;;5037282;28;20049;-44
2023/04/18 07:12:56;;;;;;;12.65;8.75;;;9.00;99.90;;;;;;5016598;28;20052;-49
2023/04/18 07:15:22;;;;;;;11.68;7.90;;;;;;;;;;5025650;28;20808;-49
2023/04/18 07:17:48;;;;;;;14.10;7.95;;;9.40;99.80;;;;;;5029065;28;20080;-47
2023/04/18 07:20:14;;;;;;;13.52;7.63;;;;;;;;;;5031802;28;20120;-46
2023/04/18 07:22:40;;;;;;;13.70;7.90;;;9.30;99.10;;;;;;5031326;28;20033;-47
2023/04/18 07:25:06;;;;;;;13.90;7.57;;;9.70;96.70;;;;;;5034102;28;20116;-44
2023/04/18 07:27:34;;;;;;;11.68;7.13;;;9.40;98.60;;;;;;5037113;28;20493;-47
2023/04/18 07:30:00;;;;;;;12.80;7.03;;;9.60;99.00;;;;;;5037274;28;20060;-44
2023/04/18 07:32:26;;;;;;;12.55;6.78;;;;;;;;;;5027809;28;20044;-44
2023/04/18 07:34:52;;;;;;;10.45;7.10;;;;;;;;;;5034808;28;20033;-46
2023/04/18 07:37:20;;;;;;;11.68;7.57;;;;;;;;;;5033879;28;20153;-46
2023/04/18 07:39:46;;;;;;;9.85;7.43;;;10.90;93.80;;;;;;5026524;28;20049;-46
2023/04/18 07:42:12;;;;;;;9.80;7.13;;;10.80;97.10;;;;;;5037735;28;20044;-47
2023/04/18 07:44:38;;;;;;;8.98;6.30;;;10.80;91.70;;;;;;5010520;28;20037;-44
2023/04/18 07:47:08;;;;;;;11.43;6.65;;;10.80;98.40;;;;;;5034836;28;20077;-44
2023/04/18 07:49:34;;;;;;;7.72;5.85;;;10.70;98.30;;;;;;5037698;28;20118;-44
2023/04/18 07:55:45;;;;;;;10.18;6.32;;;10.80;98.30;;;;;;5030320;28;20035;-46
2023/04/18 07:58:11;;;;;;;9.82;5.57;;;11.10;92.80;;;;;;5013075;28;20040;-45
2023/04/18 08:00:38;;;;;;;8.07;6.07;;;10.90;97.30;;;;;;5020742;28;20832;-47
2023/04/18 08:03:06;;;;;;;8.50;6.40;;;11.00;91.50;;;;;;5019921;28;20419;-47
2023/04/18 08:13:49;;;;;;;9.82;5.72;;;11.80;90.20;;;;;;4961963;28;20620;-47
2023/04/18 08:27:09;;;;;;;6.78;5.38;;;12.50;91.50;;;;;;4956723;28;20074;-45
2023/04/18 08:29:56;;;;;;;6.85;4.80;;;13.10;89.40;;;;;;4955849;28;20067;-45
2023/04/18 08:32:50;;;;;;;7.35;5.05;;;13.40;87.70;;;;;;4956426;28;20045;-52
2023/04/18 08:39:41;;;;;;;8.10;4.75;;;15.10;83.10;;;;;;4961331;28;20520;-48
2023/04/18 08:54:03;;;;;;;5.28;4.40;;;15.70;92.90;;;;;;4963954;28;21192;-50
2023/04/18 08:57:07;;;;;;;5.53;4.28;;;15.90;91.40;;;;;;4890102;28;21310;-48
2023/04/18 09:04:01;;;;;;;6.03;4.53;;;15.20;92.80;;;;;;4890506;28;20068;-55
2023/04/18 09:06:27;;;;;;;8.02;4.40;;;15.00;93.70;;;;;;4888642;28;22134;-52
2023/04/18 09:09:01;;;;;;;6.63;4.40;;;15.40;93.40;;;;;;4875953;28;22049;-54
2023/04/18 09:12:04;;;;;;;5.75;4.55;;;15.00;84.50;;;;;;4888952;28;21273;-56
2023/04/18 09:14:47;;;;;;;5.40;4.13;;;14.60;94.50;;;;;;4850372;28;22273;-44
2023/04/18 09:17:50;;;;;;;7.35;4.50;;;15.20;85.10;;;;;;4864308;28;20048;-55
2023/04/18 09:20:25;;;;;;;;;;;15.00;81.30;;;;;;4963932;28;20054;-50
2023/04/18 09:22:56;;;;;;;6.30;4.25;;;15.10;79.70;;;;;;4965229;28;19943;-51
2023/04/18 09:25:33;;;;;;;4.95;4.30;;;15.70;83.80;;;;;;4952180;28;20144;-53
2023/04/18 09:28:01;;;;;;;5.85;4.68;;;15.90;77.60;;;;;;4958385;28;20038;-52
2023/04/18 09:30:31;;;;;;;5.75;3.80;;;16.10;84.60;;;;;;4959346;28;20682;-46
2023/04/18 09:33:01;;;;;;;7.07;4.55;;;16.10;97.40;;;;;;4967170;28;21454;-48
2023/04/18 09:35:27;;;;;;;7.88;4.38;;;15.80;90.30;;;;;;4971324;28;20050;-47
2023/04/18 09:37:53;;;;;;;6.72;4.47;;;15.90;89.10;;;;;;4971621;28;20056;-50
2023/04/18 09:40:19;;;;;;;7.15;4.47;;;15.00;95.50;;;;;;4968752;28;20034;-48
2023/04/18 09:42:45;;;;;;;6.82;5.35;;;15.40;82.80;;;;;;4974599;28;20041;-49
2023/04/18 09:45:15;;;;;;;6.38;3.60;;;15.40;87.00;;;;;;4957598;28;20046;-54
2023/04/18 09:47:40;;;;;;;7.53;4.90;;;15.30;81.50;;;;;;4983174;28;20042;-47
2023/04/18 09:50:08;;;;;;;6.88;4.60;;;15.70;82.40;;;;;;4960673;28;20045;-49
2023/04/18 09:52:40;;;;;;;7.10;5.20;;;16.30;81.70;;;;;;4966159;28;20046;-48
2023/04/18 09:55:08;;;;;;;5.82;4.65;;;16.10;81.80;;;;;;4951075;28;20648;-52
2023/04/18 09:57:35;;;;;;;5.85;4.50;;;16.40;80.10;;;;;;4971412;28;20130;-55
2023/04/18 10:00:09;;;;;;;6.18;4.38;;;16.30;79.00;;;;;;4941633;28;20168;-57
2023/04/18 10:02:49;;;;;;;6.65;4.18;;;16.40;92.60;;;;;;4968116;28;20040;-58
2023/04/18 10:05:15;;;;;;;5.70;3.67;;;16.10;74.90;;;;;;4959127;28;20125;-57
2023/04/18 10:07:47;;;;;;;5.95;4.10;;;16.10;74.00;;;;;;4959134;28;20056;-58
2023/04/18 10:10:13;;;;;;;6.03;4.18;;;;;;;;;;4972384;28;20033;-46
2023/04/18 10:12:40;;;;;;;7.05;3.97;;;16.20;74.30;;;;;;4975349;28;21173;-46
2023/04/18 10:15:08;;;;;;;5.20;3.97;;;16.10;74.50;;;;;;4987905;28;20372;-49
2023/04/18 10:18:00;;;;;;;6.70;4.40;;;15.80;90.70;;;;;;4984903;28;20083;-48
2023/04/18 10:20:31;;;;;;;7.20;4.35;;;14.80;91.90;;;;;;4981299;28;20053;-50
2023/04/18 10:22:59;;;;;;;6.38;4.75;;;15.00;76.70;;;;;;4979518;28;20068;-51
2023/04/18 10:25:33;;;;;;;5.78;3.97;;;15.30;91.70;;;;;;4995971;28;20107;-54
2023/04/18 10:28:03;;;;;;;6.63;4.47;;;14.80;77.80;;;;;;5014621;28;20051;-52
2023/04/18 10:30:50;;;;;;;7.20;4.18;;;14.50;80.10;;;;;;5014881;28;20037;-57
2023/04/18 10:33:31;;;;;;;6.88;4.53;;;14.40;94.00;;;;;;5011432;28;21859;-55
2023/04/18 10:36:13;;;;;;;7.38;4.55;;;14.50;79.50;;;;;;4987018;28;20433;-56
2023/04/18 10:38:47;;;;;;;6.93;4.90;;;14.60;83.50;;;;;;5003608;28;20055;-52
2023/04/18 10:41:30;;;;;;;7.30;5.20;;;14.70;75.30;;;;;;4976536;28;20036;-45
2023/04/18 10:44:14;;;;;;;7.82;5.50;;;14.70;80.60;;;;;;4997188;28;20095;-45
2023/04/18 10:47:00;;;;;;;9.65;7.05;;;14.80;90.10;;;;;;5013176;28;20041;-47
2023/04/18 10:49:30;;;;;;;7.35;5.57;;;14.50;73.80;;;;;;5010169;28;20045;-49
2023/04/18 10:51:57;;;;;;;8.48;5.68;;;14.30;75.40;;;;;;5009044;28;20037;-53
2023/04/18 10:54:36;;;;;;;8.32;5.60;;;14.30;75.20;;;;;;4995198;28;20049;-47
2023/04/18 10:57:04;;;;;;;8.10;5.50;;;14.30;91.50;;;;;;5011337;28;20094;-47
2023/04/18 10:59:31;;;;;;;8.93;6.70;;;13.90;93.30;;;;;;5019288;28;20073;-57
2023/04/18 11:02:22;;;;;;;9.90;6.80;;;14.00;82.30;;;;;;5039002;28;21026;-56
2023/04/18 11:04:53;;;;;;;9.82;6.78;;;13.80;95.30;;;;;;5029442;28;20046;-56
2023/04/18 11:07:33;;;;;;;11.02;6.05;;;13.80;85.10;;;;;;5027855;28;20141;-56
2023/04/18 11:10:00;;;;;;;11.98;6.45;;;13.70;83.30;;;;;;5007415;28;20044;-57
2023/04/18 11:12:31;;;;;;;7.60;5.80;;;13.00;91.00;;;;;;5033769;28;20089;-56
2023/04/18 11:14:57;;;;;;;10.10;6.30;;;13.90;86.80;;;;;;5029352;28;20136;-57
2023/04/18 11:17:27;;;;;;;9.20;6.63;;;13.60;98.30;;;;;;5011224;28;20044;-56
2023/04/18 11:20:13;;;;;;;11.25;6.22;;;13.30;88.40;;;;;;5037579;28;20479;-57
2023/04/18 11:22:57;;;;;;;11.38;6.05;;;13.40;85.40;;;;;;5031385;28;20045;-56
2023/04/18 11:25:25;;;;;;;9.95;6.80;;;13.30;84.40;;;;;;5032058;28;20036;-57
2023/04/18 11:27:53;;;;;;;9.55;6.97;;;;;;;;;;5031038;28;20041;-57
2023/04/18 11:38:09;;;;;;;8.75;5.90;;;13.50;83.90;;;;;;5026068;28;20074;-52
2023/04/18 11:44:25;;;;;;;8.23;5.43;;;13.50;88.90;;;;;;5004265;28;20783;-52
2023/04/18 11:46:52;;;;;;;10.00;5.70;;;12.80;79.30;;;;;;5008633;28;20045;-53
2023/04/18 11:49:31;;;;;;;10.65;6.70;;;13.50;80.40;;;;;;5030591;28;20043;-52
2023/04/18 11:51:58;;;;;;;8.50;5.30;;;13.60;81.10;;;;;;5029750;28;20045;-51
2023/04/18 11:54:41;;;;;;;7.20;5.55;;;13.60;80.60;;;;;;5031852;28;20049;-50
2023/04/18 11:57:22;;;;;;;8.65;6.38;;;13.70;78.50;;;;;;5025576;28;20033;-51
2023/04/18 11:59:52;;;;;;;9.18;6.65;;;13.70;78.90;;;;;;5028366;28;20034;-48
2023/04/18 12:02:18;;;;;;;10.93;7.70;;;13.50;79.60;;;;;;5026905;28;20715;-48
2023/04/18 12:04:56;;;;;;;10.45;6.72;;;13.40;79.60;;;;;;5026841;28;21163;-48
2023/04/18 12:07:32;;;;;;;7.85;6.03;;;13.40;77.00;;;;;;5030369;28;20047;-48
2023/04/18 12:09:58;;;;;;;7.35;6.47;;;13.40;79.10;;;;;;5025880;28;20033;-50
2023/04/18 12:12:23;;;;;;;7.53;5.82;;;13.40;80.00;;;;;;5033667;28;20045;-50
2023/04/18 12:15:01;;;;;;;10.23;7.00;;;13.50;80.40;;;;;;5031551;28;20127;-48
2023/04/18 12:17:27;;;;;;;8.60;5.63;;;13.40;78.60;;;;;;5027765;28;20054;-47
2023/04/18 12:19:54;;;;;;;6.38;5.20;;;13.20;80.00;;;;;;5031959;28;20486;-48
2023/04/18 12:22:36;;;;;;;6.35;4.82;;;13.50;79.40;;;;;;5032062;28;20048;-49
2023/04/18 12:25:20;;;;;;;8.43;4.22;;;13.60;80.30;;;;;;5030761;28;20038;-51
2023/04/18 12:27:57;;;;;;;6.95;5.43;;;13.60;80.00;;;;;;5029376;28;20046;-50
2023/04/18 12:30:28;;;;;;;11.50;5.05;;;13.70;79.60;;;;;;5035857;28;20041;-48
2023/04/18 12:33:00;;;;;;;6.30;4.63;;;13.70;79.30;;;;;;5035125;28;20052;-48
2023/04/18 12:35:26;;;;;;;5.05;4.07;;;13.70;80.30;;;;;;5028605;28;20479;-48
2023/04/18 12:37:54;;;;;;;7.15;4.60;;;13.70;80.60;;;;;;5038984;28;20045;-47
2023/04/18 12:40:21;;;;;;;6.47;4.60;;;13.70;80.90;;;;;;5035205;28;20585;-50
2023/04/18 12:42:48;;;;;;;5.68;4.32;;;13.70;80.80;;;;;;5039041;28;20792;-48
2023/04/18 12:45:15;;;;;;;6.25;4.93;;;13.80;79.30;;;;;;5030175;28;20113;-49
2023/04/18 12:47:43;;;;;;;7.35;4.40;;;13.80;79.70;;;;;;5030797;28;20045;-48
2023/04/18 12:50:10;;;;;;;6.85;4.13;;;13.80;79.40;;;;;;5029278;28;20120;-48
2023/04/18 12:52:38;;;;;;;7.55;4.00;;;13.90;79.60;;;;;;5033044;28;20038;-48
2023/04/18 12:55:05;;;;;;;4.78;3.90;;;13.90;79.90;;;;;;5041519;28;20533;-49
2023/04/18 12:57:32;;;;;;;4.82;3.83;;;13.90;78.50;;;;;;5030256;28;20057;-47
2023/04/18 12:59:57;;;;;;;5.63;3.85;;;13.90;79.00;;;;;;5020368;28;20044;-49
2023/04/18 13:02:23;;;;;;;5.63;3.97;;;13.90;79.00;;;;;;5034310;28;20269;-47
2023/04/18 13:04:52;;;;;;;4.78;3.47;;;13.90;77.90;;;;;;5033434;28;20060;-50
2023/04/18 13:07:18;;;;;;;4.32;3.00;;;13.90;78.90;;;;;;5038207;28;20609;-50
2023/04/18 13:09:47;;;;;;;5.50;3.10;;;13.90;78.50;;;;;;5033774;28;20038;-51
2023/04/18 13:12:13;;;;;;;4.68;3.03;;;14.00;78.50;;;;;;5037019;28;20848;-48
2023/04/18 13:14:40;;;;;;;7.05;2.78;;;14.10;78.70;;;;;;5032992;28;20686;-48
2023/04/18 13:17:06;;;;;;;5.13;2.20;;;14.20;79.80;;;;;;5011649;28;20045;-47
2023/04/18 13:19:32;;;;;;;4.00;2.47;;;14.20;78.70;;;;;;5034511;28;20043;-50
2023/04/18 13:21:58;;;;;;;3.72;2.88;;;14.40;79.00;;;;;;5030256;28;20068;-48
2023/04/18 13:24:23;;;;;;;4.90;3.45;;;14.50;78.90;;;;;;5036080;28;20442;-48
2023/04/18 13:26:50;;;;;;;7.68;3.45;;;14.40;78.30;;;;;;5035135;28;20728;-50
2023/04/18 13:29:15;;;;;;;5.80;3.28;;;14.40;79.30;;;;;;5028872;28;20041;-52
2023/04/18 13:31:41;;;;;;;8.30;3.30;;;14.50;79.40;;;;;;5034049;28;20120;-51
2023/04/18 13:34:07;;;;;;;3.40;2.60;;;14.40;79.00;;;;;;5021136;28;20079;-50
2023/04/18 13:36:33;;;;;;;5.40;3.20;;;14.40;78.60;;;;;;5029361;28;20029;-51
2023/04/18 13:39:00;;;;;;;8.07;2.83;;;14.40;79.60;;;;;;5038768;28;20053;-50
2023/04/18 13:41:26;;;;;;;5.97;3.08;;;14.30;79.90;;;;;;5030702;28;20037;-48
2023/04/18 13:43:52;;;;;;;6.90;3.80;;;14.50;79.90;;;;;;5038189;28;20025;-48
2023/04/18 13:46:17;;;;;;;5.07;3.80;;;14.40;79.30;;;;;;5036282;28;20048;-48
2023/04/18 13:48:43;;;;;;;5.15;3.30;;;14.30;78.60;;;;;;5033105;28;20367;-48
2023/04/18 13:51:09;;;;;;;4.68;3.10;;;14.30;78.20;;;;;;5029015;28;20045;-47
2023/04/18 13:53:35;;;;;;;4.88;3.40;;;14.20;78.50;;;;;;5031503;28;20127;-47
2023/04/18 13:56:01;;;;;;;5.65;3.63;;;14.30;78.80;;;;;;5028899;28;20040;-48